createdAt,value
2019-05-20T00:02:25.985Z,100122.96
2019-05-20T00:04:47.409Z,100128.37
2019-05-20T00:07:12.847Z,100128.42
2019-05-20T00:09:38.329Z,100130.95
2019-05-20T00:12:03.799Z,100130.82
2019-05-20T00:14:29.379Z,100132.15
2019-05-20T00:16:54.926Z,100125.89
2019-05-20T00:19:20.378Z,100127.22
2019-05-20T00:21:46.400Z,100128.86
2019-05-20T00:24:11.855Z,100117.22
2019-05-20T00:26:37.308Z,100119.13
2019-05-20T00:29:02.767Z,100123.05
2019-05-20T00:31:28.270Z,100116.66
2019-05-20T00:33:53.729Z,100114.13
2019-05-20T00:36:19.533Z,100117.80
2019-05-20T00:38:47.466Z,100117.24
2019-05-20T00:41:12.857Z,100120.24
2019-05-20T00:43:38.331Z,100115.85
2019-05-20T00:46:03.802Z,100120.67
2019-05-20T00:48:29.262Z,100119.04
2019-05-20T00:50:54.721Z,100116.10
2019-05-20T00:53:20.180Z,100119.28
2019-05-20T00:55:45.630Z,100116.88
2019-05-20T00:58:11.184Z,100115.83
2019-05-20T01:00:37.010Z,100123.44
2019-05-20T01:03:02.462Z,100119.94
2019-05-20T01:05:27.924Z,100116.38
2019-05-20T01:07:53.385Z,100124.81
2019-05-20T01:10:18.829Z,100122.45
2019-05-20T01:12:44.291Z,100118.70
2019-05-20T01:15:10.235Z,100124.29
2019-05-20T01:17:35.790Z,100131.89
2019-05-20T01:20:01.289Z,100137.20
2019-05-20T01:22:26.733Z,100141.85
2019-05-20T01:24:52.165Z,100137.44
2019-05-20T01:27:17.638Z,100139.89
2019-05-20T01:29:43.129Z,100129.80
2019-05-20T01:32:08.865Z,100134.88
2019-05-20T01:34:34.352Z,100132.52
2019-05-20T01:36:59.874Z,100133.07
2019-05-20T01:39:25.402Z,100131.77
2019-05-20T01:41:50.844Z,100133.17
2019-05-20T01:44:16.554Z,100135.02
2019-05-20T01:46:42.264Z,100128.98
2019-05-20T01:49:07.885Z,100136.97
2019-05-20T01:51:33.279Z,100135.19
2019-05-20T01:53:58.773Z,100132.34
2019-05-20T01:56:24.403Z,100137.21
2019-05-20T01:58:50.140Z,100135.77
2019-05-20T02:01:15.850Z,100127.47
2019-05-20T02:03:41.304Z,100132.05
2019-05-20T02:06:07.025Z,100132.24
2019-05-20T02:08:38.571Z,100138.08
2019-05-20T02:11:04.027Z,100141.26
2019-05-20T02:13:48.273Z,100141.37
2019-05-20T02:16:13.949Z,100137.09
2019-05-20T02:18:39.717Z,100137.61
2019-05-20T02:21:05.511Z,100135.26
2019-05-20T02:23:30.951Z,100129.42
2019-05-20T02:25:56.451Z,100127.27
2019-05-20T02:28:21.905Z,100135.97
2019-05-20T02:30:47.687Z,100143.10
2019-05-20T02:33:13.160Z,100141.47
2019-05-20T02:35:38.640Z,100137.45
2019-05-20T02:38:04.173Z,100142.16
2019-05-20T02:40:29.553Z,100142.97
2019-05-20T02:42:55.521Z,100143.95
2019-05-20T02:45:21.170Z,100144.64
2019-05-20T02:47:46.478Z,100147.97
2019-05-20T02:50:12.145Z,100141.38
2019-05-20T02:52:38.065Z,100147.03
2019-05-20T02:55:03.597Z,100147.16
2019-05-20T02:57:29.379Z,100148.45
2019-05-20T02:59:55.064Z,100149.31
2019-05-20T03:02:20.842Z,100146.50
2019-05-20T03:04:46.505Z,100147.64
2019-05-20T03:07:12.468Z,100159.03
2019-05-20T03:09:37.863Z,100158.84
2019-05-20T03:12:03.637Z,100160.38
2019-05-20T03:14:29.191Z,100160.97
2019-05-20T03:16:55.085Z,100152.54
2019-05-20T03:19:20.763Z,100157.34
2019-05-20T03:21:46.576Z,100160.53
2019-05-20T03:24:12.683Z,100168.72
2019-05-20T03:26:38.924Z,100170.39
2019-05-20T03:29:04.358Z,100175.98
2019-05-20T03:31:30.540Z,100173.06
2019-05-20T03:33:56.630Z,100170.77
2019-05-20T03:36:22.547Z,100174.62
2019-05-20T03:38:48.340Z,100179.02
2019-05-20T03:41:13.759Z,100174.34
2019-05-20T03:43:39.172Z,100176.78
2019-05-20T03:46:04.781Z,100175.31
2019-05-20T03:48:30.470Z,100172.70
2019-05-20T03:50:56.695Z,100166.25
2019-05-20T03:53:22.488Z,100164.57
2019-05-20T03:55:48.041Z,100160.53
2019-05-20T03:58:14.135Z,100158.69
2019-05-20T04:00:47.764Z,100160.73
2019-05-20T04:03:14.757Z,100163.65
2019-05-20T04:05:41.013Z,100168.23
2019-05-20T04:08:07.165Z,100170.45
2019-05-20T04:10:41.290Z,100177.80
2019-05-20T04:13:07.032Z,100180.59
2019-05-20T04:15:32.831Z,100179.34
2019-05-20T04:17:59.818Z,100172.04
2019-05-20T04:20:25.488Z,100179.09
2019-05-20T04:22:51.246Z,100186.52
2019-05-20T04:25:19.326Z,100185.17
2019-05-20T04:27:45.277Z,100187.05
2019-05-20T04:30:11.134Z,100191.39
2019-05-20T04:32:37.136Z,100185.59
2019-05-20T04:35:20.715Z,100189.95
2019-05-20T04:37:31.043Z,100203.11
2019-05-20T04:39:56.963Z,100203.78
2019-05-20T04:42:22.732Z,100190.42
2019-05-20T04:44:48.346Z,100193.86
2019-05-20T04:47:13.788Z,100202.69
2019-05-20T04:49:46.484Z,100200.00
2019-05-20T04:52:11.941Z,100201.81
2019-05-20T04:54:37.435Z,100205.88
2019-05-20T04:57:03.676Z,100199.31
2019-05-20T04:59:29.049Z,100202.16
2019-05-20T05:01:54.590Z,100195.77
2019-05-20T05:04:20.067Z,100198.47
2019-05-20T05:06:45.544Z,100199.74
2019-05-20T05:09:11.271Z,100202.05
2019-05-20T05:11:37.022Z,100196.28
2019-05-20T05:14:02.526Z,100197.33
2019-05-20T05:16:27.972Z,100187.52
2019-05-20T05:18:53.719Z,100183.30
2019-05-20T05:21:19.589Z,100173.26
2019-05-20T05:23:58.383Z,100175.72
2019-05-20T05:26:12.211Z,100178.57
2019-05-20T05:28:37.666Z,100179.96
2019-05-20T05:31:03.178Z,100179.20
2019-05-20T05:33:28.544Z,100180.77
2019-05-20T05:35:54.304Z,100187.31
2019-05-20T05:38:19.765Z,100192.45
2019-05-20T05:40:45.236Z,100196.41
2019-05-20T05:43:10.786Z,100209.54
2019-05-20T05:45:36.519Z,100207.64
2019-05-20T05:48:01.977Z,100208.98
2019-05-20T05:50:27.813Z,100213.26
2019-05-20T05:52:53.274Z,100212.38
2019-05-20T05:55:18.759Z,100212.81
2019-05-20T05:57:44.458Z,100209.09
2019-05-20T06:00:10.845Z,100217.75
2019-05-20T06:02:36.405Z,100214.80
2019-05-20T06:05:01.797Z,100218.65
2019-05-20T06:07:27.275Z,100212.57
2019-05-20T06:09:52.751Z,100218.39
2019-05-20T06:12:18.262Z,100212.70
2019-05-20T06:14:43.736Z,100217.59
2019-05-20T06:17:09.217Z,100209.97
2019-05-20T06:19:34.588Z,100215.77
2019-05-20T06:22:00.151Z,100221.16
2019-05-20T06:24:25.569Z,100220.88
2019-05-20T06:26:51.159Z,100222.02
2019-05-20T06:29:16.843Z,100225.70
2019-05-20T06:31:42.615Z,100225.16
2019-05-20T06:34:08.115Z,100221.39
2019-05-20T06:36:37.676Z,100237.50
2019-05-20T06:39:13.524Z,100236.81
2019-05-20T06:41:39.252Z,100232.16
2019-05-20T06:44:06.636Z,100230.45
2019-05-20T06:46:32.348Z,100226.01
2019-05-20T06:49:00.899Z,100226.33
2019-05-20T06:51:27.051Z,100224.66
2019-05-20T06:53:52.903Z,100235.03
2019-05-20T06:56:18.685Z,100245.66
2019-05-20T06:58:44.423Z,100243.44
2019-05-20T07:01:09.887Z,100251.82
2019-05-20T07:03:36.276Z,100242.17
2019-05-20T07:06:02.145Z,100245.59
2019-05-20T07:08:27.642Z,100253.75
2019-05-20T07:10:53.785Z,100247.28
2019-05-20T07:13:19.700Z,100246.14
2019-05-20T07:15:45.344Z,100249.16
2019-05-20T07:18:11.144Z,100253.30
2019-05-20T07:20:37.880Z,100254.17
2019-05-20T07:23:03.482Z,100263.48
2019-05-20T07:25:29.260Z,100253.65
2019-05-20T07:27:55.177Z,100257.02
2019-05-20T07:30:20.787Z,100257.31
2019-05-20T07:32:46.438Z,100264.66
2019-05-20T07:35:28.949Z,100268.52
2019-05-20T07:37:40.273Z,100264.98
2019-05-20T07:40:06.416Z,100267.63
2019-05-20T07:42:32.259Z,100269.59
2019-05-20T07:44:57.726Z,100269.52
2019-05-20T07:47:23.314Z,100274.89
2019-05-20T07:49:49.483Z,100278.85
2019-05-20T07:52:15.505Z,100278.77
2019-05-20T07:54:41.353Z,100275.19
2019-05-20T07:57:11.688Z,100276.62
2019-05-20T07:59:41.317Z,100269.16
2019-05-20T08:02:07.654Z,100267.16
2019-05-20T08:04:33.298Z,100271.52
2019-05-20T08:06:59.385Z,100271.06
2019-05-20T08:09:24.882Z,100268.30
2019-05-20T08:11:50.796Z,100272.65
2019-05-20T08:14:16.249Z,100277.89
2019-05-20T08:16:42.192Z,100276.80
2019-05-20T08:19:08.061Z,100279.34
2019-05-20T08:21:33.683Z,100274.64
2019-05-20T08:23:59.380Z,100279.78
2019-05-20T08:26:25.100Z,100296.09
2019-05-20T08:28:51.345Z,100294.74
2019-05-20T08:31:16.862Z,100300.70
2019-05-20T08:33:42.484Z,100296.97
2019-05-20T08:36:08.065Z,100298.02
2019-05-20T08:38:33.745Z,100295.61
2019-05-20T08:40:59.638Z,100291.93
2019-05-20T08:43:25.355Z,100291.17
2019-05-20T08:45:50.987Z,100298.92
2019-05-20T08:48:16.785Z,100290.61
2019-05-20T08:50:42.696Z,100294.74
2019-05-20T08:53:09.853Z,100299.60
2019-05-20T08:55:35.359Z,100309.38
2019-05-20T08:58:00.845Z,100307.89
2019-05-20T09:00:26.692Z,100307.50
2019-05-20T09:02:52.282Z,100308.69
2019-05-20T09:05:18.105Z,100310.25
2019-05-20T09:07:43.953Z,100311.41
2019-05-20T09:10:09.576Z,100313.27
2019-05-20T09:12:34.979Z,100316.31
2019-05-20T09:15:00.507Z,100314.90
2019-05-20T09:17:25.987Z,100317.89
2019-05-20T09:19:51.491Z,100317.53
2019-05-20T09:22:17.010Z,100314.80
2019-05-20T09:24:42.697Z,100315.73
2019-05-20T09:27:08.230Z,100320.86
2019-05-20T09:29:33.705Z,100316.02
2019-05-20T09:31:59.170Z,100315.23
2019-05-20T09:34:26.009Z,100314.64
2019-05-20T09:36:51.552Z,100319.09
2019-05-20T09:39:17.037Z,100316.43
2019-05-20T09:41:46.138Z,100310.73
2019-05-20T09:44:11.885Z,100319.77
2019-05-20T09:46:37.364Z,100312.67
2019-05-20T09:49:03.348Z,100308.37
2019-05-20T09:51:28.755Z,100306.50
2019-05-20T09:53:54.271Z,100314.52
2019-05-20T09:56:19.786Z,100307.64
2019-05-20T09:58:45.499Z,100313.12
2019-05-20T10:01:11.077Z,100305.65
2019-05-20T10:03:38.900Z,100314.20
2019-05-20T10:06:04.484Z,100316.98
2019-05-20T10:08:39.051Z,100317.09
2019-05-20T10:10:59.823Z,100315.42
2019-05-20T10:13:36.028Z,100310.91
2019-05-20T10:16:01.503Z,100312.60
2019-05-20T10:18:36.605Z,100313.45
2019-05-20T10:20:54.472Z,100316.86
2019-05-20T10:23:19.844Z,100315.95
2019-05-20T10:25:45.826Z,100313.06
2019-05-20T10:28:11.308Z,100319.47
2019-05-20T10:30:36.754Z,100319.50
2019-05-20T10:33:02.219Z,100314.34
2019-05-20T10:35:27.663Z,100317.95
2019-05-20T10:37:53.113Z,100328.34
2019-05-20T10:40:18.981Z,100322.09
2019-05-20T10:42:44.375Z,100319.66
2019-05-20T10:45:09.904Z,100326.02
2019-05-20T10:47:35.355Z,100323.58
2019-05-20T10:50:01.090Z,100330.67
2019-05-20T10:52:26.571Z,100334.92
2019-05-20T10:54:52.340Z,100338.50
2019-05-20T10:57:17.782Z,100341.00
2019-05-20T10:59:43.370Z,100347.91
2019-05-20T11:02:09.129Z,100343.74
2019-05-20T11:04:35.558Z,100351.60
2019-05-20T11:07:01.225Z,100345.41
2019-05-20T11:09:26.977Z,100352.09
2019-05-20T11:11:52.422Z,100352.64
2019-05-20T11:14:17.921Z,100355.45
2019-05-20T11:16:43.454Z,100359.94
2019-05-20T11:19:08.901Z,100356.81
2019-05-20T11:21:34.387Z,100361.27
2019-05-20T11:23:59.844Z,100367.31
2019-05-20T11:26:25.304Z,100366.97
2019-05-20T11:28:51.016Z,100374.47
2019-05-20T11:31:16.503Z,100371.30
2019-05-20T11:33:41.910Z,100371.70
2019-05-20T11:36:07.351Z,100370.76
2019-05-20T11:38:32.792Z,100362.29
2019-05-20T11:40:58.287Z,100367.66
2019-05-20T11:43:23.896Z,100360.84
2019-05-20T11:45:49.484Z,100370.05
2019-05-20T11:48:15.191Z,100366.83
2019-05-20T11:50:41.109Z,100374.12
2019-05-20T11:53:06.761Z,100368.66
2019-05-20T11:55:32.296Z,100371.80
2019-05-20T11:58:15.224Z,100373.73
2019-05-20T12:00:31.958Z,100371.24
2019-05-20T12:02:57.508Z,100367.31
2019-05-20T12:05:22.956Z,100369.33
2019-05-20T12:07:48.256Z,100371.72
2019-05-20T12:10:13.716Z,100371.05
2019-05-20T12:12:39.358Z,100373.34
2019-05-20T12:15:06.272Z,100378.25
2019-05-20T12:17:32.248Z,100372.78
2019-05-20T12:19:57.872Z,100370.81
2019-05-20T12:22:23.919Z,100369.36
2019-05-20T12:24:51.731Z,100371.96
2019-05-20T12:27:19.170Z,100370.95
2019-05-20T12:29:46.157Z,100379.58
2019-05-20T12:32:11.751Z,100375.91
2019-05-20T12:34:37.569Z,100370.66
2019-05-20T12:37:03.014Z,100374.58
2019-05-20T12:39:28.485Z,100373.45
2019-05-20T12:41:53.904Z,100371.66
2019-05-20T12:44:24.270Z,100378.45
2019-05-20T12:46:49.852Z,100376.17
2019-05-20T12:49:15.758Z,100375.52
2019-05-20T12:51:41.483Z,100373.08
2019-05-20T12:54:06.940Z,100375.58
2019-05-20T12:56:32.565Z,100371.69
2019-05-20T12:58:58.379Z,100379.02
2019-05-20T13:01:23.867Z,100376.81
2019-05-20T13:03:49.533Z,100377.41
2019-05-20T13:06:15.041Z,100373.33
2019-05-20T13:08:45.087Z,100368.06
2019-05-20T13:11:10.573Z,100371.44
2019-05-20T13:13:37.151Z,100374.75
2019-05-20T13:16:02.717Z,100369.02
2019-05-20T13:18:28.276Z,100371.95
2019-05-20T13:20:53.739Z,100369.86
2019-05-20T13:23:19.422Z,100373.69
2019-05-20T13:25:44.940Z,100371.23
2019-05-20T13:28:10.737Z,100366.73
2019-05-20T13:30:46.071Z,100367.76
2019-05-20T13:33:11.909Z,100366.39
2019-05-20T13:35:37.478Z,100365.75
2019-05-20T13:38:05.914Z,100367.62
2019-05-20T13:40:46.053Z,100361.12
2019-05-20T13:42:58.950Z,100366.79
2019-05-20T13:45:24.454Z,100358.44
2019-05-20T13:47:49.910Z,100364.81
2019-05-20T13:50:15.662Z,100357.53
2019-05-20T13:52:41.137Z,100362.95
2019-05-20T13:55:06.821Z,100364.25
2019-05-20T13:57:32.532Z,100363.20
2019-05-20T13:59:58.015Z,100354.48
2019-05-20T14:02:23.491Z,100361.03
2019-05-20T14:04:48.932Z,100363.03
2019-05-20T14:07:14.517Z,100364.98
2019-05-20T14:09:40.321Z,100368.16
2019-05-20T14:12:05.765Z,100357.60
2019-05-20T14:14:31.266Z,100361.57
2019-05-20T14:16:56.760Z,100361.55
2019-05-20T14:19:22.855Z,100363.83
2019-05-20T14:21:48.425Z,100357.55
2019-05-20T14:24:13.956Z,100358.30
2019-05-20T14:26:39.786Z,100359.99
2019-05-20T14:29:05.273Z,100357.67
2019-05-20T14:31:30.635Z,100356.34
2019-05-20T14:33:56.014Z,100358.13
2019-05-20T14:36:38.536Z,100355.23
2019-05-20T14:38:48.815Z,100350.31
2019-05-20T14:41:21.686Z,100358.35
2019-05-20T14:43:42.009Z,100355.47
2019-05-20T14:46:07.715Z,100365.73
2019-05-20T14:48:33.331Z,100351.48
2019-05-20T14:50:58.925Z,100357.30
2019-05-20T14:53:24.404Z,100363.09
2019-05-20T14:55:49.965Z,100362.06
2019-05-20T14:58:15.720Z,100367.20
2019-05-20T15:00:41.526Z,100366.23
2019-05-20T15:03:07.030Z,100367.62
2019-05-20T15:05:40.142Z,100362.67
2019-05-20T15:08:17.309Z,100362.02
2019-05-20T15:10:42.985Z,100361.93
2019-05-20T15:13:08.638Z,100356.14
2019-05-20T15:15:34.649Z,100355.89
2019-05-20T15:18:00.343Z,100352.27
2019-05-20T15:20:25.809Z,100354.59
2019-05-20T15:22:52.150Z,100362.19
2019-05-20T15:25:19.872Z,100361.88
2019-05-20T15:27:45.741Z,100363.42
2019-05-20T15:30:11.910Z,100358.75
2019-05-20T15:32:37.378Z,100363.92
2019-05-20T15:35:03.103Z,100362.91
2019-05-20T15:37:28.647Z,100361.83
2019-05-20T15:39:54.014Z,100362.56
2019-05-20T15:42:19.756Z,100358.30
2019-05-20T15:44:45.141Z,100369.98
2019-05-20T15:47:18.492Z,100365.03
2019-05-20T15:49:41.789Z,100361.88
2019-05-20T15:52:07.425Z,100363.77
2019-05-20T15:54:32.864Z,100361.45
2019-05-20T15:56:58.483Z,100360.81
2019-05-20T15:59:24.060Z,100358.27
2019-05-20T16:01:49.639Z,100357.70
2019-05-20T16:04:14.988Z,100360.23
2019-05-20T16:06:40.596Z,100355.66
2019-05-20T16:09:06.939Z,100353.70
2019-05-20T16:11:32.503Z,100347.30
2019-05-20T16:13:57.997Z,100343.13
2019-05-20T16:16:23.457Z,100351.17
2019-05-20T16:18:48.966Z,100353.91
2019-05-20T16:21:14.531Z,100346.61
2019-05-20T16:23:40.060Z,100350.88
2019-05-20T16:26:05.689Z,100353.82
2019-05-20T16:28:31.269Z,100348.69
2019-05-20T16:30:57.056Z,100350.17
2019-05-20T16:33:22.980Z,100347.86
2019-05-20T16:35:48.504Z,100342.88
2019-05-20T16:38:14.274Z,100342.13
2019-05-20T16:40:40.071Z,100346.63
2019-05-20T16:43:05.468Z,100349.53
2019-05-20T16:45:30.956Z,100351.54
2019-05-20T16:47:56.677Z,100352.20
2019-05-20T16:50:22.566Z,100355.31
2019-05-20T16:52:48.163Z,100354.59
2019-05-20T16:55:14.087Z,100353.38
2019-05-20T16:57:39.611Z,100353.75
2019-05-20T17:00:14.698Z,100353.62
2019-05-20T17:02:33.264Z,100353.13
2019-05-20T17:04:58.979Z,100353.34
2019-05-20T17:07:24.801Z,100346.97
2019-05-20T17:09:50.191Z,100343.34
2019-05-20T17:12:15.598Z,100348.44
2019-05-20T17:14:41.159Z,100346.99
2019-05-20T17:17:07.138Z,100345.66
2019-05-20T17:19:35.882Z,100355.56
2019-05-20T17:22:01.352Z,100355.66
2019-05-20T17:24:27.788Z,100357.36
2019-05-20T17:26:53.643Z,100362.12
2019-05-20T17:29:19.532Z,100361.78
2019-05-20T17:31:45.024Z,100360.67
2019-05-20T17:34:10.792Z,100353.62
2019-05-20T17:36:36.379Z,100365.56
2019-05-20T17:39:02.096Z,100370.66
2019-05-20T17:41:27.661Z,100368.91
2019-05-20T17:43:53.070Z,100374.88
2019-05-20T17:46:20.021Z,100381.34
2019-05-20T17:48:45.586Z,100387.24
2019-05-20T17:51:11.644Z,100387.46
2019-05-20T17:53:37.025Z,100382.85
2019-05-20T17:56:02.587Z,100384.39
2019-05-20T17:58:28.033Z,100382.17
2019-05-20T18:00:54.450Z,100381.86
2019-05-20T18:03:20.512Z,100383.91
2019-05-20T18:05:45.954Z,100379.84
2019-05-20T18:08:11.404Z,100380.66
2019-05-20T18:10:36.873Z,100386.47
2019-05-20T18:13:02.457Z,100385.63
2019-05-20T18:15:28.014Z,100395.06
2019-05-20T18:17:53.762Z,100393.86
2019-05-20T18:20:19.716Z,100396.92
2019-05-20T18:22:45.699Z,100401.62
2019-05-20T18:25:11.452Z,100408.17
2019-05-20T18:27:36.923Z,100413.88
2019-05-20T18:30:02.670Z,100409.64
2019-05-20T18:32:28.162Z,100415.38
2019-05-20T18:34:53.582Z,100424.84
2019-05-20T18:37:19.418Z,100422.92
2019-05-20T18:39:44.941Z,100422.19
2019-05-20T18:42:10.681Z,100420.45
2019-05-20T18:44:37.694Z,100420.43
2019-05-20T18:47:03.221Z,100423.63
2019-05-20T18:49:29.155Z,100425.91
2019-05-20T18:51:54.949Z,100427.33
2019-05-20T18:54:22.958Z,100418.80
2019-05-20T18:56:48.428Z,100419.86
2019-05-20T18:59:14.364Z,100418.89
2019-05-20T19:01:50.951Z,100429.98
2019-05-20T19:04:07.207Z,100419.08
2019-05-20T19:06:32.704Z,100424.25
2019-05-20T19:08:58.273Z,100420.53
2019-05-20T19:11:24.125Z,100418.30
2019-05-20T19:13:49.562Z,100422.72
2019-05-20T19:16:15.431Z,100422.76
2019-05-20T19:18:41.043Z,100419.25
2019-05-20T19:21:08.590Z,100425.30
2019-05-20T19:23:34.254Z,100421.69
2019-05-20T19:25:59.815Z,100424.28
2019-05-20T19:28:26.876Z,100424.18
2019-05-20T19:30:52.457Z,100428.84
2019-05-20T19:33:18.504Z,100438.38
2019-05-20T19:35:43.994Z,100436.45
2019-05-20T19:38:10.136Z,100439.03
2019-05-20T19:40:35.968Z,100437.19
2019-05-20T19:43:01.544Z,100439.97
2019-05-20T19:45:27.236Z,100442.89
2019-05-20T19:47:52.992Z,100436.45
2019-05-20T19:50:18.494Z,100439.17
2019-05-20T19:52:44.615Z,100436.45
2019-05-20T19:55:10.947Z,100436.04
2019-05-20T19:57:37.331Z,100436.87
2019-05-20T20:00:03.286Z,100443.59
2019-05-20T20:02:29.067Z,100452.28
2019-05-20T20:04:55.229Z,100451.16
2019-05-20T20:07:21.141Z,100445.52
2019-05-20T20:09:46.547Z,100450.75
2019-05-20T20:12:12.088Z,100449.74
2019-05-20T20:14:37.559Z,100449.39
2019-05-20T20:17:03.025Z,100437.98
2019-05-20T20:19:28.830Z,100438.11
2019-05-20T20:21:54.709Z,100440.20
2019-05-20T20:24:26.433Z,100442.70
2019-05-20T20:26:52.727Z,100447.11
2019-05-20T20:29:18.398Z,100449.91
2019-05-20T20:31:43.901Z,100452.26
2019-05-20T20:34:09.373Z,100452.25
2019-05-20T20:36:35.210Z,100460.64
2019-05-20T20:39:01.025Z,100463.02
2019-05-20T20:41:40.632Z,100459.98
2019-05-20T20:44:06.668Z,100460.20
2019-05-20T20:46:32.105Z,100457.14
2019-05-20T20:48:57.656Z,100455.92
2019-05-20T20:51:23.844Z,100457.80
2019-05-20T20:53:52.266Z,100473.77
2019-05-20T20:56:25.353Z,100467.67
2019-05-20T20:58:48.507Z,100476.30
2019-05-20T21:01:14.517Z,100476.92
2019-05-20T21:03:40.231Z,100472.24
2019-05-20T21:06:05.776Z,100480.70
2019-05-20T21:08:31.682Z,100472.31
2019-05-20T21:10:57.114Z,100472.59
2019-05-20T21:13:22.831Z,100467.36
2019-05-20T21:15:48.652Z,100478.35
2019-05-20T21:18:14.207Z,100482.76
2019-05-20T21:20:39.781Z,100481.36
2019-05-20T21:23:05.245Z,100479.78
2019-05-20T21:25:30.722Z,100486.20
2019-05-20T21:27:56.250Z,100483.79
2019-05-20T21:30:21.850Z,100482.13
2019-05-20T21:33:08.704Z,100485.64
2019-05-20T21:35:24.109Z,100482.92
2019-05-20T21:37:51.443Z,100479.14
2019-05-20T21:40:17.054Z,100485.30
2019-05-20T21:42:42.806Z,100479.11
2019-05-20T21:45:08.993Z,100481.81
2019-05-20T21:47:34.564Z,100476.96
2019-05-20T21:49:59.956Z,100468.27
2019-05-20T21:52:25.488Z,100477.08
2019-05-20T21:54:52.076Z,100470.09
2019-05-20T21:57:17.568Z,100471.80
2019-05-20T21:59:43.047Z,100473.78
2019-05-20T22:02:08.795Z,100472.80
2019-05-20T22:04:34.261Z,100475.61
2019-05-20T22:06:59.730Z,100479.50
2019-05-20T22:09:25.221Z,100479.61
2019-05-20T22:11:50.736Z,100480.34
2019-05-20T22:14:16.195Z,100485.64
2019-05-20T22:16:41.594Z,100483.78
2019-05-20T22:19:07.025Z,100480.59
2019-05-20T22:21:39.050Z,100477.89
2019-05-20T22:24:06.265Z,100480.42
2019-05-20T22:26:31.714Z,100477.20
2019-05-20T22:28:57.186Z,100473.06
2019-05-20T22:31:22.620Z,100473.48
2019-05-20T22:33:48.096Z,100472.14
2019-05-20T22:36:13.563Z,100464.02
2019-05-20T22:38:39.088Z,100469.42
2019-05-20T22:41:04.850Z,100465.30
2019-05-20T22:43:30.840Z,100466.93
2019-05-20T22:45:56.291Z,100476.08
2019-05-20T22:48:21.788Z,100478.56
2019-05-20T22:50:48.888Z,100475.64
2019-05-20T22:53:14.549Z,100475.59
2019-05-20T22:55:40.060Z,100478.42
2019-05-20T22:58:07.026Z,100469.35
2019-05-20T23:00:32.531Z,100475.04
2019-05-20T23:02:58.213Z,100486.75
2019-05-20T23:05:24.099Z,100487.67
2019-05-20T23:07:49.545Z,100493.34
2019-05-20T23:10:16.152Z,100494.09
2019-05-20T23:12:41.622Z,100496.84
2019-05-20T23:15:07.492Z,100494.30
2019-05-20T23:17:32.860Z,100499.84
2019-05-20T23:19:58.331Z,100488.86
2019-05-20T23:22:23.723Z,100493.31
2019-05-20T23:24:49.411Z,100492.55
2019-05-20T23:27:14.889Z,100487.30
2019-05-20T23:29:40.275Z,100489.08
2019-05-20T23:32:05.984Z,100487.02
2019-05-20T23:34:31.457Z,100494.77
2019-05-20T23:36:57.186Z,100493.63
2019-05-20T23:39:22.644Z,100502.27
2019-05-20T23:41:48.387Z,100509.41
2019-05-20T23:44:13.871Z,100506.67
2019-05-20T23:46:39.325Z,100512.56
2019-05-20T23:49:04.811Z,100504.95
2019-05-20T23:51:30.223Z,100492.70
2019-05-20T23:53:55.686Z,100494.85
2019-05-20T23:56:21.148Z,100489.41
2019-05-20T23:58:46.781Z,100500.48
